createdAt,value
2023-02-11T00:01:32.007Z,28.30
2023-02-11T00:04:00.971Z,25.70
2023-02-11T00:06:31.279Z,30.30
2023-02-11T00:09:00.412Z,30.00
2023-02-11T00:11:32.866Z,34.10
2023-02-11T00:14:03.477Z,36.50
2023-02-11T00:16:32.934Z,36.20
2023-02-11T00:19:02.718Z,35.50
2023-02-11T00:21:32.597Z,28.80
2023-02-11T00:24:02.489Z,32.30
2023-02-11T00:26:33.529Z,29.00
2023-02-11T00:29:02.351Z,32.40
2023-02-11T00:31:35.068Z,29.80
2023-02-11T00:34:04.195Z,33.00
2023-02-11T00:36:33.263Z,29.10
2023-02-11T00:39:01.978Z,33.60
2023-02-11T00:41:31.278Z,28.00
2023-02-11T00:45:21.793Z,28.10
2023-02-11T00:48:00.918Z,26.10
2023-02-11T00:50:30.266Z,24.80
2023-02-11T00:52:59.218Z,33.10
2023-02-11T00:55:28.024Z,27.90
2023-02-11T00:57:59.182Z,23.60
2023-02-11T01:00:28.227Z,24.80
2023-02-11T01:02:57.647Z,24.40
2023-02-11T01:05:26.698Z,23.90
2023-02-11T01:07:56.073Z,27.70
2023-02-11T01:10:30.613Z,27.60
2023-02-11T01:13:00.223Z,29.30
2023-02-11T01:15:29.348Z,29.70
2023-02-11T01:17:58.745Z,27.50
2023-02-11T01:20:28.338Z,29.50
2023-02-11T01:22:58.810Z,26.20
2023-02-11T01:25:27.391Z,31.80
2023-02-11T01:27:56.255Z,27.30
2023-02-11T01:30:25.174Z,30.40
2023-02-11T01:32:53.871Z,29.30
2023-02-11T01:35:22.895Z,29.60
2023-02-11T01:37:52.367Z,34.50
2023-02-11T01:40:21.259Z,30.30
2023-02-11T01:42:51.138Z,31.50
2023-02-11T01:45:46.486Z,37.80
2023-02-11T01:48:33.525Z,27.50
2023-02-11T01:51:14.867Z,31.20
2023-02-11T01:54:02.934Z,31.80
2023-02-11T01:56:52.360Z,37.00
2023-02-11T01:59:25.266Z,36.20
2023-02-11T02:01:59.675Z,35.40
2023-02-11T02:04:31.967Z,37.40
2023-02-11T02:07:04.546Z,36.90
2023-02-11T02:09:37.601Z,35.30
2023-02-11T02:12:07.893Z,34.20
2023-02-11T02:15:17.239Z,40.80
2023-02-11T02:18:31.308Z,35.30
2023-02-11T02:21:19.813Z,38.90
2023-02-11T02:24:12.539Z,38.50
2023-02-11T02:27:02.139Z,37.20
2023-02-11T02:29:49.770Z,38.00
2023-02-11T02:32:27.815Z,40.20
2023-02-11T02:35:10.815Z,39.60
2023-02-11T02:37:58.365Z,42.80
2023-02-11T02:40:33.867Z,32.40
2023-02-11T02:43:02.541Z,35.80
2023-02-11T02:45:31.215Z,37.00
2023-02-11T02:48:00.387Z,36.70
2023-02-11T02:50:35.672Z,34.70
2023-02-11T02:53:17.040Z,37.60
2023-02-11T02:56:06.938Z,34.80
2023-02-11T02:58:51.289Z,31.30
2023-02-11T03:01:43.970Z,28.60
2023-02-11T03:04:38.860Z,39.20
2023-02-11T03:07:21.678Z,42.10
2023-02-11T03:10:03.903Z,31.90
2023-02-11T03:12:33.157Z,40.90
2023-02-11T03:15:04.969Z,39.30
2023-02-11T03:17:34.441Z,32.90
2023-02-11T03:20:04.777Z,41.10
2023-02-11T03:22:35.794Z,39.30
2023-02-11T03:25:04.919Z,38.10
2023-02-11T03:27:43.417Z,35.00
2023-02-11T03:30:44.410Z,43.30
2023-02-11T03:33:18.670Z,40.20
2023-02-11T03:35:56.274Z,38.10
2023-02-11T03:38:32.335Z,42.10
2023-02-11T03:41:04.732Z,38.10
2023-02-11T03:43:36.590Z,32.30
2023-02-11T03:46:05.927Z,44.40
2023-02-11T03:48:46.654Z,42.30
2023-02-11T03:51:15.654Z,35.20
2023-02-11T03:53:46.967Z,33.10
2023-02-11T03:56:18.825Z,41.70
2023-02-11T03:58:48.748Z,53.40
2023-02-11T04:01:19.836Z,63.40
2023-02-11T04:03:48.606Z,58.20
2023-02-11T04:06:17.282Z,49.80
2023-02-11T04:08:47.393Z,52.80
2023-02-11T04:11:16.852Z,40.30
2023-02-11T04:13:47.046Z,61.00
2023-02-11T04:16:16.017Z,64.90
2023-02-11T04:18:48.922Z,76.30
2023-02-11T04:21:21.073Z,77.20
2023-02-11T04:23:55.503Z,89.90
2023-02-11T04:26:24.397Z,92.90
2023-02-11T04:28:53.136Z,108.00
2023-02-11T04:31:22.149Z,89.20
2023-02-11T04:33:51.943Z,90.10
2023-02-11T04:36:24.886Z,81.60
2023-02-11T04:38:53.896Z,83.70
2023-02-11T04:41:23.246Z,84.30
2023-02-11T04:44:00.126Z,107.80
2023-02-11T04:46:34.621Z,105.50
2023-02-11T04:49:03.964Z,94.40
2023-02-11T04:51:33.997Z,72.10
2023-02-11T04:54:05.927Z,68.50
2023-02-11T04:56:38.644Z,67.50
2023-02-11T04:59:07.517Z,82.40
2023-02-11T05:01:36.721Z,89.50
2023-02-11T05:04:11.464Z,102.30
2023-02-11T05:06:40.928Z,87.80
2023-02-11T05:09:13.387Z,78.50
2023-02-11T05:11:42.226Z,71.30
2023-02-11T05:14:11.200Z,70.70
2023-02-11T05:16:40.157Z,66.10
2023-02-11T05:19:09.565Z,67.70
2023-02-11T05:21:40.105Z,61.60
2023-02-11T05:24:11.402Z,69.60
2023-02-11T05:26:40.731Z,91.20
2023-02-11T05:29:11.176Z,61.80
2023-02-11T05:31:43.239Z,96.40
2023-02-11T05:34:12.140Z,74.40
2023-02-11T05:36:40.844Z,75.90
2023-02-11T05:39:09.609Z,103.60
2023-02-11T05:41:38.501Z,75.00
2023-02-11T05:44:07.271Z,85.80
2023-02-11T05:46:36.306Z,106.30
2023-02-11T05:49:05.402Z,131.50
2023-02-11T05:51:34.252Z,139.30
2023-02-11T05:54:03.934Z,72.30
2023-02-11T05:56:32.976Z,68.90
2023-02-11T05:59:01.863Z,72.70
2023-02-11T06:01:30.895Z,65.10
2023-02-11T06:03:59.897Z,71.00
2023-02-11T06:06:28.851Z,80.90
2023-02-11T06:09:00.392Z,85.10
2023-02-11T06:11:29.095Z,87.70
2023-02-11T06:14:00.015Z,92.60
2023-02-11T06:16:28.813Z,89.10
2023-02-11T06:18:58.212Z,64.90
2023-02-11T06:21:42.468Z,64.80
2023-02-11T06:24:12.909Z,91.90
2023-02-11T06:26:42.628Z,91.00
2023-02-11T06:29:13.174Z,89.40
2023-02-11T06:31:41.969Z,80.70
2023-02-11T06:34:10.838Z,73.50
2023-02-11T06:36:44.422Z,72.20
2023-02-11T06:39:13.494Z,78.10
2023-02-11T06:41:42.226Z,88.20
2023-02-11T06:44:11.090Z,75.30
2023-02-11T06:46:41.401Z,60.30
2023-02-11T06:49:11.142Z,64.20
2023-02-11T06:51:40.021Z,66.10
2023-02-11T06:54:11.820Z,50.40
2023-02-11T06:56:41.355Z,57.10
2023-02-11T06:59:24.248Z,52.70
2023-02-11T07:02:11.989Z,54.50
2023-02-11T07:04:42.091Z,47.10
2023-02-11T07:07:10.671Z,47.30
2023-02-11T07:09:41.378Z,51.80
2023-02-11T07:12:13.653Z,56.50
2023-02-11T07:14:42.969Z,57.20
2023-02-11T07:17:11.818Z,50.90
2023-02-11T07:19:40.681Z,59.70
2023-02-11T07:22:09.567Z,59.00
2023-02-11T07:24:38.205Z,56.30
2023-02-11T07:27:07.792Z,56.70
2023-02-11T07:29:37.878Z,52.80
2023-02-11T07:32:06.977Z,65.10
2023-02-11T07:34:35.881Z,63.10
2023-02-11T07:37:04.905Z,55.40
2023-02-11T07:39:33.737Z,63.10
2023-02-11T07:42:02.428Z,64.20
2023-02-11T07:44:33.355Z,87.50
2023-02-11T07:47:05.452Z,76.70
2023-02-11T07:49:35.493Z,78.20
2023-02-11T07:52:04.264Z,69.50
2023-02-11T07:54:33.088Z,83.40
2023-02-11T07:57:01.818Z,73.40
2023-02-11T07:59:30.729Z,69.60
2023-02-11T08:01:59.658Z,83.60
2023-02-11T08:04:28.826Z,67.10
2023-02-11T08:06:59.395Z,91.20
2023-02-11T08:09:28.532Z,75.60
2023-02-11T08:11:57.415Z,71.80
2023-02-11T08:14:27.531Z,80.30
2023-02-11T08:16:58.573Z,72.90
2023-02-11T08:19:27.780Z,77.20
2023-02-11T08:21:57.280Z,60.60
2023-02-11T08:24:26.250Z,47.90
2023-02-11T08:26:57.562Z,57.60
2023-02-11T08:29:26.617Z,65.30
2023-02-11T08:31:55.630Z,48.90
2023-02-11T08:34:24.862Z,61.00
2023-02-11T08:36:54.299Z,56.80
2023-02-11T08:39:23.232Z,69.70
2023-02-11T08:41:54.884Z,62.00
2023-02-11T08:44:24.209Z,71.80
2023-02-11T08:46:53.646Z,62.10
2023-02-11T08:49:22.681Z,55.90
2023-02-11T08:51:51.771Z,60.70
2023-02-11T08:54:21.467Z,54.10
2023-02-11T08:56:51.476Z,54.80
2023-02-11T08:59:22.197Z,54.00
2023-02-11T09:01:51.564Z,52.10
2023-02-11T09:04:20.448Z,47.90
2023-02-11T09:06:51.540Z,51.90
2023-02-11T09:09:21.299Z,52.20
2023-02-11T09:11:50.176Z,46.60
2023-02-11T09:14:20.989Z,52.50
2023-02-11T09:16:50.300Z,45.00
2023-02-11T09:19:21.102Z,50.50
2023-02-11T09:21:49.901Z,45.10
2023-02-11T09:24:18.841Z,53.20
2023-02-11T09:26:47.768Z,45.20
2023-02-11T09:29:16.498Z,51.00
2023-02-11T09:31:46.009Z,49.80
2023-02-11T09:34:16.171Z,40.60
2023-02-11T09:36:45.831Z,52.10
2023-02-11T09:39:17.320Z,45.30
2023-02-11T09:42:17.343Z,39.90
2023-02-11T09:44:46.771Z,45.50
2023-02-11T09:47:26.666Z,39.20
2023-02-11T09:50:16.913Z,37.50
2023-02-11T09:52:52.806Z,44.90
2023-02-11T09:55:30.494Z,38.80
2023-02-11T09:57:59.700Z,38.70
2023-02-11T10:00:33.870Z,37.70
2023-02-11T10:03:39.475Z,43.00
2023-02-11T10:06:30.963Z,48.50
2023-02-11T10:09:22.369Z,40.00
2023-02-11T10:12:28.783Z,41.30
2023-02-11T10:15:07.482Z,34.40
2023-02-11T10:18:15.120Z,38.50
2023-02-11T10:21:03.386Z,43.10
2023-02-11T10:23:35.570Z,30.60
2023-02-11T10:26:13.163Z,42.40
2023-02-11T10:28:44.844Z,40.30
2023-02-11T10:31:18.317Z,37.90
2023-02-11T10:33:55.072Z,35.00
2023-02-11T10:36:36.633Z,44.30
2023-02-11T10:39:26.853Z,37.90
2023-02-11T10:41:58.631Z,36.80
2023-02-11T10:45:01.038Z,37.10
2023-02-11T10:47:33.270Z,40.50
2023-02-11T10:50:03.917Z,37.80
2023-02-11T10:52:33.015Z,44.90
2023-02-11T10:55:14.997Z,36.90
2023-02-11T10:57:49.865Z,39.30
2023-02-11T11:00:41.626Z,49.50
2023-02-11T11:03:21.558Z,43.90
2023-02-11T11:06:00.020Z,36.00
2023-02-11T11:08:40.586Z,35.50
2023-02-11T11:11:14.403Z,40.90
2023-02-11T11:13:53.467Z,40.70
2023-02-11T11:16:27.782Z,39.10
2023-02-11T11:19:07.697Z,39.50
2023-02-11T11:21:46.590Z,42.10
2023-02-11T11:24:34.679Z,39.20
2023-02-11T11:27:04.720Z,38.60
2023-02-11T11:29:50.704Z,43.90
2023-02-11T11:32:24.070Z,42.10
2023-02-11T11:35:04.377Z,45.10
2023-02-11T11:37:33.827Z,37.70
2023-02-11T11:40:09.858Z,38.90
2023-02-11T11:42:39.491Z,42.60
2023-02-11T11:45:20.274Z,41.80
2023-02-11T11:47:53.462Z,37.20
2023-02-11T11:50:42.359Z,35.60
2023-02-11T11:53:21.049Z,38.40
2023-02-11T11:56:15.295Z,45.90
2023-02-11T11:58:51.314Z,44.80
2023-02-11T12:01:39.199Z,44.60
2023-02-11T12:04:17.352Z,36.50
2023-02-11T12:06:46.101Z,41.10
2023-02-11T12:09:31.606Z,44.40
2023-02-11T12:12:17.404Z,40.90
2023-02-11T12:15:26.678Z,50.80
2023-02-11T12:18:10.534Z,43.80
2023-02-11T12:21:17.632Z,43.80
2023-02-11T12:24:06.931Z,46.20
2023-02-11T12:26:36.093Z,43.40
2023-02-11T12:29:32.637Z,38.20
2023-02-11T12:32:08.427Z,41.50
2023-02-11T12:35:01.330Z,39.00
2023-02-11T12:37:49.335Z,40.40
2023-02-11T12:40:34.524Z,37.80
2023-02-11T12:43:24.183Z,38.60
2023-02-11T12:46:17.988Z,46.40
2023-02-11T12:51:28.116Z,38.20
2023-02-11T12:54:24.694Z,41.40
2023-02-11T12:56:59.533Z,43.70
2023-02-11T13:00:09.004Z,38.40
2023-02-11T13:03:05.541Z,33.70
2023-02-11T13:05:43.900Z,41.50
2023-02-11T13:08:20.483Z,42.00
2023-02-11T13:10:53.614Z,44.00
2023-02-11T13:13:35.317Z,47.10
2023-02-11T13:16:08.618Z,44.90
2023-02-11T13:18:37.944Z,40.90
2023-02-11T13:21:11.630Z,37.80
2023-02-11T13:23:46.830Z,40.70
2023-02-11T13:26:42.032Z,42.90
2023-02-11T13:29:16.859Z,39.30
2023-02-11T13:32:14.191Z,40.20
2023-02-11T13:34:44.808Z,54.10
2023-02-11T13:37:23.678Z,42.40
2023-02-11T13:40:00.596Z,46.30
2023-02-11T13:42:29.724Z,37.90
2023-02-11T13:44:58.763Z,40.50
2023-02-11T13:47:30.931Z,51.30
2023-02-11T13:50:00.491Z,37.20
2023-02-11T13:52:37.720Z,44.70
2023-02-11T13:55:15.263Z,41.00
2023-02-11T13:57:44.222Z,45.40
2023-02-11T14:00:38.937Z,47.20
2023-02-11T14:03:30.624Z,38.70
2023-02-11T14:06:27.563Z,60.50
2023-02-11T14:09:10.324Z,43.80
2023-02-11T14:11:56.577Z,45.60
2023-02-11T14:14:33.756Z,42.80
2023-02-11T14:17:07.374Z,37.60
2023-02-11T14:19:49.602Z,46.80
2023-02-11T14:22:28.087Z,47.60
2023-02-11T14:25:02.555Z,45.20
2023-02-11T14:30:13.401Z,42.50
2023-02-11T14:33:15.863Z,48.00
2023-02-11T14:35:54.388Z,49.10
2023-02-11T14:38:48.428Z,47.30
2023-02-11T14:41:25.203Z,56.90
2023-02-11T14:43:55.595Z,59.90
2023-02-11T14:46:24.932Z,51.30
2023-02-11T14:48:55.424Z,58.20
2023-02-11T14:51:36.431Z,54.60
2023-02-11T14:54:17.999Z,55.90
2023-02-11T14:56:47.326Z,45.90
2023-02-11T14:59:19.943Z,55.90
2023-02-11T15:01:54.958Z,54.50
2023-02-11T15:04:32.018Z,45.70
2023-02-11T15:07:07.398Z,44.10
2023-02-11T15:09:43.357Z,47.20
2023-02-11T15:12:20.466Z,44.70
2023-02-11T15:14:55.550Z,49.60
2023-02-11T15:17:28.229Z,40.30
2023-02-11T15:20:00.416Z,40.20
2023-02-11T15:22:36.859Z,55.50
2023-02-11T15:25:17.597Z,44.40
2023-02-11T15:27:54.657Z,51.50
2023-02-11T15:30:23.977Z,50.80
2023-02-11T15:33:00.533Z,44.00
2023-02-11T15:35:35.319Z,48.00
2023-02-11T15:38:04.331Z,50.20
2023-02-11T15:40:37.580Z,46.50
2023-02-11T15:43:08.635Z,54.20
2023-02-11T15:45:58.287Z,42.40
2023-02-11T15:48:38.572Z,48.50
2023-02-11T15:51:22.097Z,53.70
2023-02-11T15:53:57.732Z,48.90
2023-02-11T15:56:43.826Z,52.70
2023-02-11T15:59:20.247Z,41.10
2023-02-11T16:01:49.401Z,53.60
2023-02-11T16:04:20.750Z,47.00
2023-02-11T16:06:51.105Z,47.00
2023-02-11T16:09:30.992Z,53.40
2023-02-11T16:12:07.691Z,53.90
2023-02-11T16:14:42.480Z,52.90
2023-02-11T16:17:13.646Z,44.70
2023-02-11T16:19:49.890Z,50.50
2023-02-11T16:22:21.236Z,44.70
2023-02-11T16:24:50.302Z,51.70
2023-02-11T16:27:24.104Z,46.60
2023-02-11T16:32:23.854Z,46.20
2023-02-11T16:34:55.584Z,54.10
2023-02-11T16:37:25.222Z,57.60
2023-02-11T16:39:56.262Z,54.30
2023-02-11T16:42:25.468Z,52.30
2023-02-11T16:44:54.497Z,54.30
2023-02-11T16:47:27.757Z,51.20
2023-02-11T16:49:56.566Z,46.80
2023-02-11T16:52:25.395Z,55.40
2023-02-11T16:54:55.906Z,50.90
2023-02-11T16:57:26.950Z,51.20
2023-02-11T16:59:56.957Z,51.90
2023-02-11T17:02:33.694Z,59.60
2023-02-11T17:05:06.622Z,59.90
2023-02-11T17:07:36.892Z,57.00
2023-02-11T17:10:20.516Z,51.20
2023-02-11T17:12:51.460Z,52.00
2023-02-11T17:15:20.599Z,60.20
2023-02-11T17:17:49.195Z,64.60
2023-02-11T17:20:18.563Z,61.90
2023-02-11T17:22:47.482Z,58.40
2023-02-11T17:25:16.582Z,67.60
2023-02-11T17:27:45.762Z,67.40
2023-02-11T17:30:15.556Z,56.40
2023-02-11T17:32:44.807Z,68.10
2023-02-11T17:35:13.468Z,61.10
2023-02-11T17:37:42.227Z,56.80
2023-02-11T17:40:12.332Z,63.70
2023-02-11T17:42:41.394Z,55.90
2023-02-11T17:45:10.610Z,55.30
2023-02-11T17:47:39.467Z,47.80
2023-02-11T17:50:08.954Z,52.60
2023-02-11T17:52:43.284Z,47.30
2023-02-11T17:55:12.219Z,50.60
2023-02-11T17:57:41.423Z,57.00
2023-02-11T18:00:11.283Z,53.30
2023-02-11T18:02:44.795Z,52.20
2023-02-11T18:05:14.971Z,48.30
2023-02-11T18:07:44.241Z,52.70
2023-02-11T18:10:12.926Z,61.60
2023-02-11T18:12:41.703Z,53.50
2023-02-11T18:15:10.941Z,55.20
2023-02-11T18:17:40.123Z,53.70
2023-02-11T18:20:09.513Z,52.60
2023-02-11T18:22:41.286Z,61.70
2023-02-11T18:25:12.228Z,54.00
2023-02-11T18:27:41.666Z,53.80
2023-02-11T18:30:20.816Z,54.20
2023-02-11T18:32:56.257Z,58.60
2023-02-11T18:35:25.650Z,54.70
2023-02-11T18:37:56.916Z,48.90
2023-02-11T18:40:26.155Z,49.30
2023-02-11T18:42:57.512Z,47.60
2023-02-11T18:45:29.440Z,48.30
2023-02-11T18:48:02.051Z,44.20
2023-02-11T18:50:31.075Z,43.20
2023-02-11T18:52:59.827Z,47.70
2023-02-11T18:55:28.672Z,47.80
2023-02-11T18:57:57.468Z,44.00
2023-02-11T19:00:26.800Z,43.10
2023-02-11T19:02:55.646Z,49.70
2023-02-11T19:05:28.955Z,43.50
2023-02-11T19:07:57.797Z,40.90
2023-02-11T19:10:27.070Z,38.20
2023-02-11T19:12:59.426Z,41.00
2023-02-11T19:15:33.089Z,40.20
2023-02-11T19:18:02.168Z,39.50
2023-02-11T19:20:33.647Z,39.80
2023-02-11T19:23:02.567Z,39.10
2023-02-11T19:25:31.461Z,41.00
2023-02-11T19:28:00.632Z,46.50
2023-02-11T19:30:29.614Z,46.30
2023-02-11T19:32:59.278Z,37.20
2023-02-11T19:35:28.193Z,33.30
2023-02-11T19:37:57.458Z,45.50
2023-02-11T19:40:26.638Z,37.90
2023-02-11T19:42:55.812Z,41.90
2023-02-11T19:45:26.670Z,40.40
2023-02-11T19:47:56.981Z,42.20
2023-02-11T19:50:25.896Z,39.10
2023-02-11T19:52:55.627Z,37.20
2023-02-11T19:55:24.564Z,42.70
2023-02-11T19:57:53.354Z,47.20
2023-02-11T20:00:23.837Z,40.80
2023-02-11T20:02:58.413Z,39.30
2023-02-11T20:05:27.378Z,34.90
2023-02-11T20:07:57.079Z,33.90
2023-02-11T20:10:26.525Z,39.10
2023-02-11T20:12:55.318Z,31.30
2023-02-11T20:15:24.740Z,35.30
2023-02-11T20:17:53.707Z,49.10
2023-02-11T20:20:23.014Z,33.50
2023-02-11T20:22:55.026Z,37.90
2023-02-11T20:25:24.908Z,39.30
2023-02-11T20:27:54.419Z,33.90
2023-02-11T20:30:24.037Z,40.00
2023-02-11T20:32:53.918Z,32.90
2023-02-11T20:35:23.563Z,42.50
2023-02-11T20:37:53.180Z,36.20
2023-02-11T20:40:22.046Z,37.20
2023-02-11T20:42:51.355Z,37.80
2023-02-11T20:45:20.351Z,42.30
2023-02-11T20:47:49.210Z,37.90
2023-02-11T20:50:18.207Z,35.20
2023-02-11T20:52:48.804Z,35.10
2023-02-11T20:55:18.188Z,33.10
2023-02-11T20:57:54.749Z,34.40
2023-02-11T21:00:23.906Z,35.50
2023-02-11T21:02:52.983Z,33.40
2023-02-11T21:05:22.193Z,38.90
2023-02-11T21:07:52.908Z,32.50
2023-02-11T21:10:21.651Z,30.20
2023-02-11T21:12:50.765Z,32.40
2023-02-11T21:15:19.947Z,35.40
2023-02-11T21:17:48.706Z,33.90
2023-02-11T21:20:18.192Z,36.20
2023-02-11T21:22:47.070Z,36.60
2023-02-11T21:25:16.394Z,32.80
2023-02-11T21:27:45.289Z,34.10
2023-02-11T21:30:14.733Z,32.50
2023-02-11T21:32:43.799Z,35.70
2023-02-11T21:35:13.457Z,34.40
2023-02-11T21:37:42.298Z,30.20
2023-02-11T21:40:11.741Z,32.20
2023-02-11T21:42:41.226Z,34.60
2023-02-11T21:45:10.608Z,31.20
2023-02-11T21:47:40.594Z,35.60
2023-02-11T21:50:10.091Z,39.60
2023-02-11T21:52:40.208Z,39.20
2023-02-11T21:55:09.703Z,35.70
2023-02-11T21:57:38.696Z,34.60
2023-02-11T22:00:09.579Z,37.60
2023-02-11T22:02:39.319Z,35.20
2023-02-11T22:05:08.874Z,29.00
2023-02-11T22:07:37.892Z,34.10
2023-02-11T22:10:08.334Z,36.30
2023-02-11T22:12:38.044Z,38.10
2023-02-11T22:15:07.501Z,32.30
2023-02-11T22:17:37.475Z,33.10
2023-02-11T22:20:07.188Z,33.80
2023-02-11T22:22:36.353Z,37.50
2023-02-11T22:25:05.437Z,31.60
2023-02-11T22:27:35.720Z,33.60
2023-02-11T22:30:05.203Z,32.60
2023-02-11T22:32:35.217Z,37.20
2023-02-11T22:35:04.052Z,34.60
2023-02-11T22:37:33.408Z,33.10
2023-02-11T22:40:02.721Z,33.20
2023-02-11T22:42:33.392Z,31.60
2023-02-11T22:45:03.596Z,32.80
2023-02-11T22:47:32.830Z,35.40
2023-02-11T22:50:02.245Z,41.90
2023-02-11T22:52:31.932Z,31.40
2023-02-11T22:55:01.629Z,34.70
2023-02-11T22:57:30.987Z,33.90
2023-02-11T23:00:00.102Z,36.30
2023-02-11T23:02:28.862Z,35.90
2023-02-11T23:05:00.196Z,36.40
2023-02-11T23:07:30.962Z,32.40
2023-02-11T23:10:00.271Z,38.10
2023-02-11T23:12:29.542Z,40.00
2023-02-11T23:14:58.320Z,34.30
2023-02-11T23:17:29.399Z,34.40
2023-02-11T23:19:58.682Z,35.30
2023-02-11T23:22:28.522Z,35.20
2023-02-11T23:24:57.453Z,30.40
2023-02-11T23:27:26.156Z,33.70
2023-02-11T23:29:57.259Z,36.90
2023-02-11T23:32:26.550Z,37.90
2023-02-11T23:34:55.789Z,37.20
2023-02-11T23:37:26.959Z,33.50
2023-02-11T23:39:56.486Z,32.10
2023-02-11T23:42:25.416Z,33.10
2023-02-11T23:44:56.169Z,38.00
2023-02-11T23:47:25.138Z,33.30
2023-02-11T23:49:58.095Z,33.30
2023-02-11T23:52:28.298Z,37.10
2023-02-11T23:54:57.123Z,34.80
2023-02-11T23:57:25.839Z,32.40
2023-02-11T23:59:54.623Z,31.90
